sensor_id;sensor_type;location;lat;lon;timestamp;P1;durP1;ratioP1;P2;durP2;ratioP2
28078;SDS011;15388;42.238;24.684;2023-05-10T00:01:15;13.52;;;6.15;;
28078;SDS011;15388;42.238;24.684;2023-05-10T00:03:40;9.73;;;5.97;;
28078;SDS011;15388;42.238;24.684;2023-05-10T00:06:06;13.27;;;6.20;;
28078;SDS011;15388;42.238;24.684;2023-05-10T00:08:31;9.10;;;6.10;;
28078;SDS011;15388;42.238;24.684;2023-05-10T00:10:57;12.43;;;6.60;;
28078;SDS011;15388;42.238;24.684;2023-05-10T00:13:22;11.30;;;6.38;;
28078;SDS011;15388;42.238;24.684;2023-05-10T00:15:47;11.77;;;6.40;;
28078;SDS011;15388;42.238;24.684;2023-05-10T00:18:13;10.70;;;6.22;;
28078;SDS011;15388;42.238;24.684;2023-05-10T00:20:38;14.75;;;7.25;;
28078;SDS011;15388;42.238;24.684;2023-05-10T00:23:04;8.88;;;6.32;;
28078;SDS011;15388;42.238;24.684;2023-05-10T00:25:29;12.57;;;6.70;;
28078;SDS011;15388;42.238;24.684;2023-05-10T00:27:55;18.05;;;7.43;;
28078;SDS011;15388;42.238;24.684;2023-05-10T00:30:22;16.10;;;6.45;;
28078;SDS011;15388;42.238;24.684;2023-05-10T00:32:47;10.10;;;6.03;;
28078;SDS011;15388;42.238;24.684;2023-05-10T00:35:14;10.45;;;5.55;;
28078;SDS011;15388;42.238;24.684;2023-05-10T00:37:40;10.98;;;6.30;;
28078;SDS011;15388;42.238;24.684;2023-05-10T00:40:06;10.32;;;5.53;;
28078;SDS011;15388;42.238;24.684;2023-05-10T00:42:33;9.35;;;6.35;;
28078;SDS011;15388;42.238;24.684;2023-05-10T00:44:58;10.50;;;5.93;;
28078;SDS011;15388;42.238;24.684;2023-05-10T00:47:24;9.48;;;5.70;;
28078;SDS011;15388;42.238;24.684;2023-05-10T00:49:49;11.73;;;6.55;;
28078;SDS011;15388;42.238;24.684;2023-05-10T00:52:15;9.70;;;6.05;;
28078;SDS011;15388;42.238;24.684;2023-05-10T00:54:41;7.68;;;6.72;;
28078;SDS011;15388;42.238;24.684;2023-05-10T00:57:06;12.13;;;7.88;;
28078;SDS011;15388;42.238;24.684;2023-05-10T00:59:32;14.60;;;8.20;;
28078;SDS011;15388;42.238;24.684;2023-05-10T01:01:58;11.60;;;7.75;;
28078;SDS011;15388;42.238;24.684;2023-05-10T01:04:23;14.70;;;7.55;;
28078;SDS011;15388;42.238;24.684;2023-05-10T01:06:51;12.13;;;7.68;;
28078;SDS011;15388;42.238;24.684;2023-05-10T01:09:17;15.43;;;6.78;;
28078;SDS011;15388;42.238;24.684;2023-05-10T01:11:43;11.55;;;7.60;;
28078;SDS011;15388;42.238;24.684;2023-05-10T01:14:09;21.10;;;8.57;;
28078;SDS011;15388;42.238;24.684;2023-05-10T01:16:38;17.20;;;8.27;;
28078;SDS011;15388;42.238;24.684;2023-05-10T01:19:26;16.30;;;7.28;;
28078;SDS011;15388;42.238;24.684;2023-05-10T01:30:05;18.08;;;8.35;;
28078;SDS011;15388;42.238;24.684;2023-05-10T01:43:42;10.77;;;7.82;;
28078;SDS011;15388;42.238;24.684;2023-05-10T01:46:17;15.02;;;8.55;;
28078;SDS011;15388;42.238;24.684;2023-05-10T01:48:48;14.82;;;7.25;;
28078;SDS011;15388;42.238;24.684;2023-05-10T01:51:19;12.05;;;8.05;;
28078;SDS011;15388;42.238;24.684;2023-05-10T01:53:47;12.73;;;7.47;;
28078;SDS011;15388;42.238;24.684;2023-05-10T01:56:15;15.95;;;7.22;;
28078;SDS011;15388;42.238;24.684;2023-05-10T01:58:43;12.23;;;7.68;;
28078;SDS011;15388;42.238;24.684;2023-05-10T02:01:12;13.32;;;7.47;;
28078;SDS011;15388;42.238;24.684;2023-05-10T02:03:38;12.85;;;7.55;;
28078;SDS011;15388;42.238;24.684;2023-05-10T02:06:07;9.85;;;7.38;;
28078;SDS011;15388;42.238;24.684;2023-05-10T02:08:35;13.98;;;7.45;;
28078;SDS011;15388;42.238;24.684;2023-05-10T02:11:02;15.23;;;7.75;;
28078;SDS011;15388;42.238;24.684;2023-05-10T02:13:29;9.65;;;7.15;;
28078;SDS011;15388;42.238;24.684;2023-05-10T02:15:59;18.98;;;8.60;;
28078;SDS011;15388;42.238;24.684;2023-05-10T02:18:26;11.00;;;7.22;;
28078;SDS011;15388;42.238;24.684;2023-05-10T02:20:52;10.02;;;7.57;;
28078;SDS011;15388;42.238;24.684;2023-05-10T02:25:45;15.00;;;7.63;;
28078;SDS011;15388;42.238;24.684;2023-05-10T02:28:13;16.02;;;7.15;;
28078;SDS011;15388;42.238;24.684;2023-05-10T02:30:40;13.15;;;7.50;;
28078;SDS011;15388;42.238;24.684;2023-05-10T02:33:06;13.05;;;7.70;;
28078;SDS011;15388;42.238;24.684;2023-05-10T02:35:32;12.02;;;7.90;;
28078;SDS011;15388;42.238;24.684;2023-05-10T02:37:59;18.05;;;7.75;;
28078;SDS011;15388;42.238;24.684;2023-05-10T02:40:26;14.90;;;7.30;;
28078;SDS011;15388;42.238;24.684;2023-05-10T02:42:54;13.52;;;7.47;;
28078;SDS011;15388;42.238;24.684;2023-05-10T02:45:21;12.45;;;7.07;;
28078;SDS011;15388;42.238;24.684;2023-05-10T02:47:51;10.85;;;7.88;;
28078;SDS011;15388;42.238;24.684;2023-05-10T02:50:17;12.00;;;7.13;;
28078;SDS011;15388;42.238;24.684;2023-05-10T02:52:44;11.00;;;6.85;;
28078;SDS011;15388;42.238;24.684;2023-05-10T02:55:14;10.60;;;6.85;;
28078;SDS011;15388;42.238;24.684;2023-05-10T02:57:43;11.98;;;7.40;;
28078;SDS011;15388;42.238;24.684;2023-05-10T03:00:13;13.40;;;7.05;;
28078;SDS011;15388;42.238;24.684;2023-05-10T03:02:39;9.02;;;6.93;;
28078;SDS011;15388;42.238;24.684;2023-05-10T03:05:04;9.23;;;7.63;;
28078;SDS011;15388;42.238;24.684;2023-05-10T03:07:30;14.90;;;8.15;;
28078;SDS011;15388;42.238;24.684;2023-05-10T03:09:56;13.20;;;7.30;;
28078;SDS011;15388;42.238;24.684;2023-05-10T03:18:00;9.32;;;7.30;;
28078;SDS011;15388;42.238;24.684;2023-05-10T03:25:51;9.40;;;7.18;;
28078;SDS011;15388;42.238;24.684;2023-05-10T03:28:18;14.45;;;8.98;;
28078;SDS011;15388;42.238;24.684;2023-05-10T03:33:11;12.07;;;8.10;;
28078;SDS011;15388;42.238;24.684;2023-05-10T03:35:37;13.93;;;7.43;;
28078;SDS011;15388;42.238;24.684;2023-05-10T03:38:03;11.55;;;7.97;;
28078;SDS011;15388;42.238;24.684;2023-05-10T03:40:29;11.77;;;7.43;;
28078;SDS011;15388;42.238;24.684;2023-05-10T03:42:56;8.77;;;7.68;;
28078;SDS011;15388;42.238;24.684;2023-05-10T03:45:22;15.68;;;8.27;;
28078;SDS011;15388;42.238;24.684;2023-05-10T03:47:48;13.43;;;8.10;;
28078;SDS011;15388;42.238;24.684;2023-05-10T03:50:13;10.27;;;7.95;;
28078;SDS011;15388;42.238;24.684;2023-05-10T03:52:38;13.40;;;7.47;;
28078;SDS011;15388;42.238;24.684;2023-05-10T03:55:04;20.73;;;8.57;;
28078;SDS011;15388;42.238;24.684;2023-05-10T03:57:30;13.05;;;8.43;;
28078;SDS011;15388;42.238;24.684;2023-05-10T03:59:56;12.57;;;8.13;;
28078;SDS011;15388;42.238;24.684;2023-05-10T04:02:21;10.23;;;7.93;;
28078;SDS011;15388;42.238;24.684;2023-05-10T04:04:46;13.13;;;7.38;;
28078;SDS011;15388;42.238;24.684;2023-05-10T04:07:13;15.00;;;9.30;;
28078;SDS011;15388;42.238;24.684;2023-05-10T04:09:38;14.68;;;8.23;;
28078;SDS011;15388;42.238;24.684;2023-05-10T04:12:05;8.70;;;7.40;;
28078;SDS011;15388;42.238;24.684;2023-05-10T04:14:30;11.38;;;7.75;;
28078;SDS011;15388;42.238;24.684;2023-05-10T04:16:56;13.70;;;7.88;;
28078;SDS011;15388;42.238;24.684;2023-05-10T04:19:21;9.55;;;7.22;;
28078;SDS011;15388;42.238;24.684;2023-05-10T04:21:47;9.70;;;7.28;;
28078;SDS011;15388;42.238;24.684;2023-05-10T04:24:12;9.40;;;8.07;;
28078;SDS011;15388;42.238;24.684;2023-05-10T04:26:38;8.82;;;7.07;;
28078;SDS011;15388;42.238;24.684;2023-05-10T04:29:03;15.88;;;7.53;;
28078;SDS011;15388;42.238;24.684;2023-05-10T04:31:30;9.07;;;6.85;;
28078;SDS011;15388;42.238;24.684;2023-05-10T04:33:55;17.13;;;7.10;;
28078;SDS011;15388;42.238;24.684;2023-05-10T04:36:20;11.63;;;7.03;;
28078;SDS011;15388;42.238;24.684;2023-05-10T04:38:46;10.40;;;7.78;;
28078;SDS011;15388;42.238;24.684;2023-05-10T04:41:11;12.85;;;7.35;;
28078;SDS011;15388;42.238;24.684;2023-05-10T04:43:37;13.27;;;7.55;;
28078;SDS011;15388;42.238;24.684;2023-05-10T04:46:03;10.95;;;7.15;;
28078;SDS011;15388;42.238;24.684;2023-05-10T04:48:29;13.48;;;8.55;;
28078;SDS011;15388;42.238;24.684;2023-05-10T04:50:55;10.88;;;7.35;;
28078;SDS011;15388;42.238;24.684;2023-05-10T04:53:20;11.25;;;7.05;;
28078;SDS011;15388;42.238;24.684;2023-05-10T04:55:46;12.38;;;7.30;;
28078;SDS011;15388;42.238;24.684;2023-05-10T04:58:12;13.20;;;7.30;;
28078;SDS011;15388;42.238;24.684;2023-05-10T05:00:37;12.50;;;7.10;;
28078;SDS011;15388;42.238;24.684;2023-05-10T05:03:03;13.65;;;7.72;;
28078;SDS011;15388;42.238;24.684;2023-05-10T05:05:28;9.48;;;6.75;;
28078;SDS011;15388;42.238;24.684;2023-05-10T05:07:54;10.80;;;6.15;;
28078;SDS011;15388;42.238;24.684;2023-05-10T05:10:19;16.38;;;6.97;;
28078;SDS011;15388;42.238;24.684;2023-05-10T05:12:44;11.27;;;7.78;;
28078;SDS011;15388;42.238;24.684;2023-05-10T05:15:10;14.35;;;6.90;;
28078;SDS011;15388;42.238;24.684;2023-05-10T05:17:36;15.30;;;8.68;;
28078;SDS011;15388;42.238;24.684;2023-05-10T05:20:01;14.15;;;8.02;;
28078;SDS011;15388;42.238;24.684;2023-05-10T05:22:28;16.00;;;9.57;;
28078;SDS011;15388;42.238;24.684;2023-05-10T05:24:53;9.98;;;6.68;;
28078;SDS011;15388;42.238;24.684;2023-05-10T05:27:20;10.90;;;7.35;;
28078;SDS011;15388;42.238;24.684;2023-05-10T05:29:53;13.50;;;7.93;;
28078;SDS011;15388;42.238;24.684;2023-05-10T05:32:19;11.23;;;6.97;;
28078;SDS011;15388;42.238;24.684;2023-05-10T05:34:44;12.43;;;6.65;;
28078;SDS011;15388;42.238;24.684;2023-05-10T05:37:17;9.05;;;7.53;;
28078;SDS011;15388;42.238;24.684;2023-05-10T05:39:44;18.13;;;8.23;;
28078;SDS011;15388;42.238;24.684;2023-05-10T05:42:10;13.30;;;7.70;;
28078;SDS011;15388;42.238;24.684;2023-05-10T05:44:38;15.32;;;8.05;;
28078;SDS011;15388;42.238;24.684;2023-05-10T05:47:03;10.50;;;7.20;;
28078;SDS011;15388;42.238;24.684;2023-05-10T05:49:29;14.40;;;6.97;;
28078;SDS011;15388;42.238;24.684;2023-05-10T05:51:58;14.02;;;6.95;;
28078;SDS011;15388;42.238;24.684;2023-05-10T05:54:27;14.27;;;7.80;;
28078;SDS011;15388;42.238;24.684;2023-05-10T05:56:56;13.43;;;6.70;;
28078;SDS011;15388;42.238;24.684;2023-05-10T05:59:23;10.90;;;7.18;;
28078;SDS011;15388;42.238;24.684;2023-05-10T06:01:49;8.85;;;6.43;;
28078;SDS011;15388;42.238;24.684;2023-05-10T06:04:15;11.85;;;7.20;;
28078;SDS011;15388;42.238;24.684;2023-05-10T06:06:41;16.17;;;7.20;;
28078;SDS011;15388;42.238;24.684;2023-05-10T06:09:07;11.85;;;6.47;;
28078;SDS011;15388;42.238;24.684;2023-05-10T06:11:32;16.83;;;7.53;;
28078;SDS011;15388;42.238;24.684;2023-05-10T06:13:58;8.27;;;6.18;;
28078;SDS011;15388;42.238;24.684;2023-05-10T06:16:24;11.60;;;6.95;;
28078;SDS011;15388;42.238;24.684;2023-05-10T06:18:49;18.45;;;7.82;;
28078;SDS011;15388;42.238;24.684;2023-05-10T06:21:15;22.13;;;8.20;;
28078;SDS011;15388;42.238;24.684;2023-05-10T06:23:41;11.07;;;7.38;;
28078;SDS011;15388;42.238;24.684;2023-05-10T06:26:06;12.68;;;7.47;;
28078;SDS011;15388;42.238;24.684;2023-05-10T06:28:32;14.23;;;7.85;;
28078;SDS011;15388;42.238;24.684;2023-05-10T06:30:58;12.20;;;7.68;;
28078;SDS011;15388;42.238;24.684;2023-05-10T06:33:24;9.63;;;6.75;;
28078;SDS011;15388;42.238;24.684;2023-05-10T06:35:49;8.95;;;7.03;;
28078;SDS011;15388;42.238;24.684;2023-05-10T06:38:15;10.50;;;7.55;;
28078;SDS011;15388;42.238;24.684;2023-05-10T06:40:41;12.20;;;7.60;;
28078;SDS011;15388;42.238;24.684;2023-05-10T06:43:07;10.63;;;6.80;;
28078;SDS011;15388;42.238;24.684;2023-05-10T06:45:32;11.50;;;6.85;;
28078;SDS011;15388;42.238;24.684;2023-05-10T06:47:58;15.57;;;7.25;;
28078;SDS011;15388;42.238;24.684;2023-05-10T06:50:23;12.77;;;7.60;;
28078;SDS011;15388;42.238;24.684;2023-05-10T06:52:49;12.73;;;7.30;;
28078;SDS011;15388;42.238;24.684;2023-05-10T06:55:14;17.48;;;7.10;;
28078;SDS011;15388;42.238;24.684;2023-05-10T06:57:40;12.10;;;6.75;;
28078;SDS011;15388;42.238;24.684;2023-05-10T07:00:05;10.13;;;7.47;;
28078;SDS011;15388;42.238;24.684;2023-05-10T07:02:31;9.10;;;6.93;;
28078;SDS011;15388;42.238;24.684;2023-05-10T07:04:57;9.75;;;7.35;;
28078;SDS011;15388;42.238;24.684;2023-05-10T07:07:22;13.63;;;6.88;;
28078;SDS011;15388;42.238;24.684;2023-05-10T07:09:48;8.93;;;6.93;;
28078;SDS011;15388;42.238;24.684;2023-05-10T07:12:14;10.18;;;6.75;;
28078;SDS011;15388;42.238;24.684;2023-05-10T07:14:40;9.73;;;7.55;;
28078;SDS011;15388;42.238;24.684;2023-05-10T07:17:05;16.65;;;6.75;;
28078;SDS011;15388;42.238;24.684;2023-05-10T07:19:32;12.45;;;7.28;;
28078;SDS011;15388;42.238;24.684;2023-05-10T07:21:57;12.10;;;6.82;;
28078;SDS011;15388;42.238;24.684;2023-05-10T07:24:23;10.75;;;6.78;;
28078;SDS011;15388;42.238;24.684;2023-05-10T07:26:49;11.73;;;5.72;;
28078;SDS011;15388;42.238;24.684;2023-05-10T07:29:14;7.88;;;6.32;;
28078;SDS011;15388;42.238;24.684;2023-05-10T07:31:40;10.82;;;6.10;;
28078;SDS011;15388;42.238;24.684;2023-05-10T07:34:07;11.35;;;6.20;;
28078;SDS011;15388;42.238;24.684;2023-05-10T07:36:33;10.27;;;5.53;;
28078;SDS011;15388;42.238;24.684;2023-05-10T07:38:59;9.98;;;6.65;;
28078;SDS011;15388;42.238;24.684;2023-05-10T07:41:24;11.15;;;6.50;;
28078;SDS011;15388;42.238;24.684;2023-05-10T07:43:50;8.57;;;5.95;;
28078;SDS011;15388;42.238;24.684;2023-05-10T07:46:15;14.50;;;8.10;;
28078;SDS011;15388;42.238;24.684;2023-05-10T07:48:41;9.55;;;6.60;;
28078;SDS011;15388;42.238;24.684;2023-05-10T07:51:06;11.40;;;6.40;;
28078;SDS011;15388;42.238;24.684;2023-05-10T07:53:34;11.63;;;6.30;;
28078;SDS011;15388;42.238;24.684;2023-05-10T07:56:19;13.13;;;6.28;;
28078;SDS011;15388;42.238;24.684;2023-05-10T07:59:01;12.80;;;6.47;;
28078;SDS011;15388;42.238;24.684;2023-05-10T08:01:32;8.73;;;5.95;;
28078;SDS011;15388;42.238;24.684;2023-05-10T08:03:58;7.32;;;5.95;;
28078;SDS011;15388;42.238;24.684;2023-05-10T08:06:25;10.93;;;5.57;;
28078;SDS011;15388;42.238;24.684;2023-05-10T08:08:53;7.50;;;6.03;;
28078;SDS011;15388;42.238;24.684;2023-05-10T08:11:19;7.65;;;6.18;;
28078;SDS011;15388;42.238;24.684;2023-05-10T08:13:46;11.90;;;5.90;;
28078;SDS011;15388;42.238;24.684;2023-05-10T08:16:13;12.80;;;6.55;;
28078;SDS011;15388;42.238;24.684;2023-05-10T08:18:38;6.63;;;5.72;;
28078;SDS011;15388;42.238;24.684;2023-05-10T08:21:05;18.63;;;6.37;;
28078;SDS011;15388;42.238;24.684;2023-05-10T08:23:31;14.48;;;5.93;;
28078;SDS011;15388;42.238;24.684;2023-05-10T08:25:58;6.88;;;5.30;;
28078;SDS011;15388;42.238;24.684;2023-05-10T08:28:24;11.38;;;5.25;;
28078;SDS011;15388;42.238;24.684;2023-05-10T08:30:49;6.93;;;5.57;;
28078;SDS011;15388;42.238;24.684;2023-05-10T08:33:15;9.57;;;5.90;;
28078;SDS011;15388;42.238;24.684;2023-05-10T08:35:40;23.65;;;6.00;;
28078;SDS011;15388;42.238;24.684;2023-05-10T08:38:06;8.60;;;5.53;;
28078;SDS011;15388;42.238;24.684;2023-05-10T08:40:32;12.55;;;5.53;;
28078;SDS011;15388;42.238;24.684;2023-05-10T08:42:59;9.10;;;6.15;;
28078;SDS011;15388;42.238;24.684;2023-05-10T08:45:33;9.57;;;5.25;;
28078;SDS011;15388;42.238;24.684;2023-05-10T08:48:07;7.00;;;5.45;;
28078;SDS011;15388;42.238;24.684;2023-05-10T08:50:38;7.55;;;5.63;;
28078;SDS011;15388;42.238;24.684;2023-05-10T08:53:06;16.58;;;5.65;;
28078;SDS011;15388;42.238;24.684;2023-05-10T08:55:34;8.50;;;5.70;;
28078;SDS011;15388;42.238;24.684;2023-05-10T08:58:05;8.70;;;6.35;;
28078;SDS011;15388;42.238;24.684;2023-05-10T09:00:31;8.55;;;5.68;;
28078;SDS011;15388;42.238;24.684;2023-05-10T09:02:58;10.10;;;6.15;;
28078;SDS011;15388;42.238;24.684;2023-05-10T09:05:24;13.13;;;7.17;;
28078;SDS011;15388;42.238;24.684;2023-05-10T09:07:50;15.45;;;6.25;;
28078;SDS011;15388;42.238;24.684;2023-05-10T09:10:15;12.07;;;5.03;;
28078;SDS011;15388;42.238;24.684;2023-05-10T09:12:41;6.60;;;5.38;;
28078;SDS011;15388;42.238;24.684;2023-05-10T09:15:09;8.75;;;5.00;;
28078;SDS011;15388;42.238;24.684;2023-05-10T09:17:35;10.07;;;4.53;;
28078;SDS011;15388;42.238;24.684;2023-05-10T09:20:02;11.70;;;5.32;;
28078;SDS011;15388;42.238;24.684;2023-05-10T09:22:32;6.97;;;4.53;;
28078;SDS011;15388;42.238;24.684;2023-05-10T09:27:33;12.40;;;5.32;;
28078;SDS011;15388;42.238;24.684;2023-05-10T09:29:59;13.90;;;5.10;;
28078;SDS011;15388;42.238;24.684;2023-05-10T09:32:38;5.00;;;4.50;;
28078;SDS011;15388;42.238;24.684;2023-05-10T09:37:34;11.75;;;6.18;;
28078;SDS011;15388;42.238;24.684;2023-05-10T09:39:59;5.72;;;4.68;;
28078;SDS011;15388;42.238;24.684;2023-05-10T09:42:25;6.00;;;3.78;;
28078;SDS011;15388;42.238;24.684;2023-05-10T09:44:50;6.95;;;4.28;;
28078;SDS011;15388;42.238;24.684;2023-05-10T09:47:19;8.40;;;4.53;;
28078;SDS011;15388;42.238;24.684;2023-05-10T09:49:49;5.93;;;4.47;;
28078;SDS011;15388;42.238;24.684;2023-05-10T09:52:16;6.13;;;3.88;;
28078;SDS011;15388;42.238;24.684;2023-05-10T09:54:44;5.05;;;4.07;;
28078;SDS011;15388;42.238;24.684;2023-05-10T09:57:22;15.23;;;4.70;;
28078;SDS011;15388;42.238;24.684;2023-05-10T09:59:51;6.05;;;4.68;;
28078;SDS011;15388;42.238;24.684;2023-05-10T10:02:28;9.77;;;4.97;;
28078;SDS011;15388;42.238;24.684;2023-05-10T10:04:54;9.35;;;5.30;;
28078;SDS011;15388;42.238;24.684;2023-05-10T10:07:22;5.00;;;3.85;;
28078;SDS011;15388;42.238;24.684;2023-05-10T10:09:49;8.00;;;3.97;;
28078;SDS011;15388;42.238;24.684;2023-05-10T10:12:15;11.85;;;4.50;;
28078;SDS011;15388;42.238;24.684;2023-05-10T10:14:41;4.88;;;3.97;;
28078;SDS011;15388;42.238;24.684;2023-05-10T10:17:06;3.92;;;3.60;;
28078;SDS011;15388;42.238;24.684;2023-05-10T10:19:33;5.78;;;4.28;;
28078;SDS011;15388;42.238;24.684;2023-05-10T10:22:00;5.05;;;4.25;;
28078;SDS011;15388;42.238;24.684;2023-05-10T10:24:25;8.15;;;4.78;;
28078;SDS011;15388;42.238;24.684;2023-05-10T10:26:52;6.82;;;4.80;;
28078;SDS011;15388;42.238;24.684;2023-05-10T10:32:08;9.45;;;4.43;;
28078;SDS011;15388;42.238;24.684;2023-05-10T10:34:44;12.02;;;4.78;;
28078;SDS011;15388;42.238;24.684;2023-05-10T10:37:10;4.55;;;3.53;;
28078;SDS011;15388;42.238;24.684;2023-05-10T10:39:36;7.10;;;4.00;;
28078;SDS011;15388;42.238;24.684;2023-05-10T10:42:01;6.75;;;4.35;;
28078;SDS011;15388;42.238;24.684;2023-05-10T10:54:49;6.93;;;4.38;;
28078;SDS011;15388;42.238;24.684;2023-05-10T10:57:22;7.70;;;5.80;;
28078;SDS011;15388;42.238;24.684;2023-05-10T10:59:47;8.40;;;5.05;;
28078;SDS011;15388;42.238;24.684;2023-05-10T11:02:46;11.35;;;3.95;;
28078;SDS011;15388;42.238;24.684;2023-05-10T11:05:57;5.00;;;4.50;;
28078;SDS011;15388;42.238;24.684;2023-05-10T11:15:54;7.07;;;4.55;;
28078;SDS011;15388;42.238;24.684;2023-05-10T11:23:29;5.45;;;3.97;;
28078;SDS011;15388;42.238;24.684;2023-05-10T11:25:55;6.00;;;4.22;;
28078;SDS011;15388;42.238;24.684;2023-05-10T11:28:21;7.75;;;5.00;;
28078;SDS011;15388;42.238;24.684;2023-05-10T11:30:46;10.30;;;4.93;;
28078;SDS011;15388;42.238;24.684;2023-05-10T11:33:16;7.55;;;6.85;;
28078;SDS011;15388;42.238;24.684;2023-05-10T11:35:44;7.18;;;5.82;;
28078;SDS011;15388;42.238;24.684;2023-05-10T11:38:11;7.78;;;7.00;;
28078;SDS011;15388;42.238;24.684;2023-05-10T11:43:04;7.53;;;6.50;;
28078;SDS011;15388;42.238;24.684;2023-05-10T11:45:33;8.55;;;6.43;;
28078;SDS011;15388;42.238;24.684;2023-05-10T11:47:59;9.23;;;6.30;;
28078;SDS011;15388;42.238;24.684;2023-05-10T11:50:25;9.65;;;6.28;;
28078;SDS011;15388;42.238;24.684;2023-05-10T11:52:51;7.90;;;5.05;;
28078;SDS011;15388;42.238;24.684;2023-05-10T11:55:17;8.13;;;6.60;;
28078;SDS011;15388;42.238;24.684;2023-05-10T11:57:43;5.63;;;5.13;;
28078;SDS011;15388;42.238;24.684;2023-05-10T12:00:11;8.10;;;5.55;;
28078;SDS011;15388;42.238;24.684;2023-05-10T12:02:37;7.70;;;5.28;;
28078;SDS011;15388;42.238;24.684;2023-05-10T12:05:04;12.93;;;6.32;;
28078;SDS011;15388;42.238;24.684;2023-05-10T12:07:32;5.03;;;4.60;;
28078;SDS011;15388;42.238;24.684;2023-05-10T12:12:40;5.28;;;4.50;;
28078;SDS011;15388;42.238;24.684;2023-05-10T12:15:27;7.72;;;4.40;;
28078;SDS011;15388;42.238;24.684;2023-05-10T12:17:53;7.05;;;4.05;;
28078;SDS011;15388;42.238;24.684;2023-05-10T12:22:56;12.55;;;5.10;;
28078;SDS011;15388;42.238;24.684;2023-05-10T12:25:23;4.38;;;3.97;;
28078;SDS011;15388;42.238;24.684;2023-05-10T12:27:55;7.20;;;3.63;;
28078;SDS011;15388;42.238;24.684;2023-05-10T12:30:25;7.55;;;4.07;;
28078;SDS011;15388;42.238;24.684;2023-05-10T12:33:02;4.65;;;3.67;;
28078;SDS011;15388;42.238;24.684;2023-05-10T12:35:43;6.00;;;4.15;;
28078;SDS011;15388;42.238;24.684;2023-05-10T12:38:26;6.30;;;3.55;;
28078;SDS011;15388;42.238;24.684;2023-05-10T12:40:55;7.43;;;3.08;;
28078;SDS011;15388;42.238;24.684;2023-05-10T12:43:21;8.20;;;3.30;;
28078;SDS011;15388;42.238;24.684;2023-05-10T12:45:47;6.22;;;3.88;;
28078;SDS011;15388;42.238;24.684;2023-05-10T12:48:13;5.32;;;2.90;;
28078;SDS011;15388;42.238;24.684;2023-05-10T12:50:42;6.93;;;2.72;;
28078;SDS011;15388;42.238;24.684;2023-05-10T12:53:07;3.20;;;2.35;;
28078;SDS011;15388;42.238;24.684;2023-05-10T12:55:33;4.07;;;2.75;;
28078;SDS011;15388;42.238;24.684;2023-05-10T12:57:59;7.88;;;3.28;;
28078;SDS011;15388;42.238;24.684;2023-05-10T13:00:24;5.35;;;3.28;;
28078;SDS011;15388;42.238;24.684;2023-05-10T13:02:50;5.93;;;3.20;;
28078;SDS011;15388;42.238;24.684;2023-05-10T13:05:15;5.45;;;3.30;;
28078;SDS011;15388;42.238;24.684;2023-05-10T13:07:41;7.22;;;3.60;;
28078;SDS011;15388;42.238;24.684;2023-05-10T13:10:08;6.65;;;3.42;;
28078;SDS011;15388;42.238;24.684;2023-05-10T13:12:35;8.35;;;2.92;;
28078;SDS011;15388;42.238;24.684;2023-05-10T13:15:01;8.38;;;3.42;;
28078;SDS011;15388;42.238;24.684;2023-05-10T13:17:28;4.90;;;3.25;;
28078;SDS011;15388;42.238;24.684;2023-05-10T13:19:54;3.92;;;3.63;;
28078;SDS011;15388;42.238;24.684;2023-05-10T13:22:19;5.18;;;3.65;;
28078;SDS011;15388;42.238;24.684;2023-05-10T13:24:45;5.85;;;3.10;;
28078;SDS011;15388;42.238;24.684;2023-05-10T13:27:10;4.82;;;3.42;;
28078;SDS011;15388;42.238;24.684;2023-05-10T13:29:36;4.30;;;3.42;;
28078;SDS011;15388;42.238;24.684;2023-05-10T13:32:01;5.75;;;3.28;;
28078;SDS011;15388;42.238;24.684;2023-05-10T13:34:27;7.82;;;3.50;;
28078;SDS011;15388;42.238;24.684;2023-05-10T13:36:52;7.00;;;4.00;;
28078;SDS011;15388;42.238;24.684;2023-05-10T13:39:19;5.13;;;3.90;;
28078;SDS011;15388;42.238;24.684;2023-05-10T13:41:45;5.35;;;3.25;;
28078;SDS011;15388;42.238;24.684;2023-05-10T13:44:12;5.70;;;3.15;;
28078;SDS011;15388;42.238;24.684;2023-05-10T13:46:38;4.82;;;4.00;;
28078;SDS011;15388;42.238;24.684;2023-05-10T13:49:03;14.50;;;4.30;;
28078;SDS011;15388;42.238;24.684;2023-05-10T13:51:29;5.07;;;3.90;;
28078;SDS011;15388;42.238;24.684;2023-05-10T13:56:22;6.20;;;4.38;;
28078;SDS011;15388;42.238;24.684;2023-05-10T13:58:47;9.18;;;4.88;;
28078;SDS011;15388;42.238;24.684;2023-05-10T14:01:13;12.50;;;5.45;;
28078;SDS011;15388;42.238;24.684;2023-05-10T14:03:38;6.15;;;4.90;;
28078;SDS011;15388;42.238;24.684;2023-05-10T14:06:04;5.10;;;4.05;;
28078;SDS011;15388;42.238;24.684;2023-05-10T14:08:29;5.60;;;4.88;;
28078;SDS011;15388;42.238;24.684;2023-05-10T14:10:54;6.15;;;4.75;;
28078;SDS011;15388;42.238;24.684;2023-05-10T14:13:21;9.30;;;6.67;;
28078;SDS011;15388;42.238;24.684;2023-05-10T14:15:47;8.98;;;5.35;;
28078;SDS011;15388;42.238;24.684;2023-05-10T14:18:12;13.25;;;6.57;;
28078;SDS011;15388;42.238;24.684;2023-05-10T14:20:37;20.95;;;6.45;;
28078;SDS011;15388;42.238;24.684;2023-05-10T14:23:03;13.93;;;6.78;;
28078;SDS011;15388;42.238;24.684;2023-05-10T14:25:28;6.30;;;4.68;;
28078;SDS011;15388;42.238;24.684;2023-05-10T14:27:54;8.50;;;5.43;;
28078;SDS011;15388;42.238;24.684;2023-05-10T14:30:20;6.15;;;3.55;;
28078;SDS011;15388;42.238;24.684;2023-05-10T14:32:45;4.55;;;4.13;;
28078;SDS011;15388;42.238;24.684;2023-05-10T14:35:12;8.43;;;4.43;;
28078;SDS011;15388;42.238;24.684;2023-05-10T14:37:38;8.88;;;7.20;;
28078;SDS011;15388;42.238;24.684;2023-05-10T14:40:05;12.52;;;7.40;;
28078;SDS011;15388;42.238;24.684;2023-05-10T14:42:32;14.27;;;7.25;;
28078;SDS011;15388;42.238;24.684;2023-05-10T14:44:57;9.48;;;7.38;;
28078;SDS011;15388;42.238;24.684;2023-05-10T14:47:23;7.53;;;6.00;;
28078;SDS011;15388;42.238;24.684;2023-05-10T14:49:48;5.22;;;4.72;;
28078;SDS011;15388;42.238;24.684;2023-05-10T14:52:14;13.93;;;8.43;;
28078;SDS011;15388;42.238;24.684;2023-05-10T14:54:39;12.82;;;8.13;;
28078;SDS011;15388;42.238;24.684;2023-05-10T14:57:06;21.17;;;11.93;;
28078;SDS011;15388;42.238;24.684;2023-05-10T14:59:32;11.93;;;8.35;;
28078;SDS011;15388;42.238;24.684;2023-05-10T15:01:57;8.88;;;6.90;;
28078;SDS011;15388;42.238;24.684;2023-05-10T15:04:24;9.07;;;6.22;;
28078;SDS011;15388;42.238;24.684;2023-05-10T15:06:49;10.48;;;5.68;;
28078;SDS011;15388;42.238;24.684;2023-05-10T15:09:15;7.13;;;5.55;;
28078;SDS011;15388;42.238;24.684;2023-05-10T15:11:41;8.68;;;6.25;;
28078;SDS011;15388;42.238;24.684;2023-05-10T15:14:07;8.20;;;7.13;;
28078;SDS011;15388;42.238;24.684;2023-05-10T15:16:32;13.02;;;6.10;;
28078;SDS011;15388;42.238;24.684;2023-05-10T15:18:58;7.88;;;5.28;;
28078;SDS011;15388;42.238;24.684;2023-05-10T15:21:23;9.57;;;4.22;;
28078;SDS011;15388;42.238;24.684;2023-05-10T15:23:48;8.18;;;4.70;;
28078;SDS011;15388;42.238;24.684;2023-05-10T15:26:15;7.53;;;3.70;;
28078;SDS011;15388;42.238;24.684;2023-05-10T15:28:40;6.88;;;4.00;;
28078;SDS011;15388;42.238;24.684;2023-05-10T15:31:06;7.55;;;4.60;;
28078;SDS011;15388;42.238;24.684;2023-05-10T15:33:31;5.95;;;4.35;;
28078;SDS011;15388;42.238;24.684;2023-05-10T15:35:58;4.22;;;3.75;;
28078;SDS011;15388;42.238;24.684;2023-05-10T15:38:24;5.60;;;4.13;;
28078;SDS011;15388;42.238;24.684;2023-05-10T15:40:49;6.95;;;5.20;;
28078;SDS011;15388;42.238;24.684;2023-05-10T15:43:15;6.82;;;6.07;;